Time;durP1;ratioP1;P1;durP2;ratioP2;P2;SDS_P1;SDS_P2;PMS_P1;PMS_P2;Temp;Humidity;BMP_temperature;BMP_pressure;BME280_temperature;BME280_humidity;BME280_pressure;Samples;Min_cycle;Max_cycle;Signal;HPM_P1;HPM_P2
2021/10/20 00:00:20;;;;;;;222.30;214.90;;;12.30;99.90;;;;;;5074311;28;20537;-85
2021/10/20 00:02:49;;;;;;;193.27;186.57;;;12.10;99.90;;;;;;5075572;28;20454;-86
2021/10/20 00:05:17;;;;;;;177.97;171.57;;;12.20;99.90;;;;;;5075609;28;20850;-87
2021/10/20 00:07:50;;;;;;;181.57;175.40;;;12.10;99.90;;;;;;5075300;28;20454;-87
2021/10/20 00:10:23;;;;;;;184.80;178.27;;;12.00;99.90;;;;;;5075260;28;20450;-88
2021/10/20 00:12:58;;;;;;;179.07;172.80;;;12.00;99.90;;;;;;5075351;28;20438;-87
2021/10/20 00:15:31;;;;;;;183.03;176.70;;;12.10;99.90;;;;;;5074182;28;20508;-86
2021/10/20 00:17:58;;;;;;;173.23;166.93;;;12.00;99.90;;;;;;5087304;28;20493;-87
2021/10/20 00:20:30;;;;;;;221.90;212.37;;;11.90;99.90;;;;;;5095481;28;20480;-88
2021/10/20 00:22:59;;;;;;;239.50;231.47;;;11.80;99.90;;;;;;5095552;28;20474;-87
2021/10/20 00:25:31;;;;;;;283.77;272.97;;;11.90;99.90;;;;;;5095254;28;20502;-87
2021/10/20 00:27:58;;;;;;;316.33;305.03;;;11.80;99.90;;;;;;5095282;28;20457;-87
2021/10/20 00:30:31;;;;;;;330.27;318.17;;;11.70;99.90;;;;;;5094257;28;20453;-88
2021/10/20 00:32:58;;;;;;;284.47;274.57;;;11.80;99.90;;;;;;5095181;28;20449;-86
2021/10/20 00:35:27;;;;;;;319.80;308.43;;;11.80;99.90;;;;;;5095132;28;20456;-87
2021/10/20 00:37:54;;;;;;;311.27;300.23;;;11.80;99.90;;;;;;5095026;28;20554;-87
2021/10/20 00:40:21;;;;;;;333.60;320.67;;;11.80;99.90;;;;;;5095077;28;20445;-87
2021/10/20 00:42:50;;;;;;;362.90;349.50;;;11.70;99.90;;;;;;5095034;28;20453;-87
2021/10/20 00:45:24;;;;;;;421.63;404.97;;;11.70;99.90;;;;;;5093944;28;20809;-86
2021/10/20 00:48:02;;;;;;;478.63;458.57;;;11.50;99.90;;;;;;5095047;28;20441;-86
2021/10/20 00:50:29;;;;;;;523.70;501.63;;;11.70;99.90;;;;;;5094733;28;20453;-86
2021/10/20 00:52:59;;;;;;;539.97;516.77;;;11.70;99.90;;;;;;5094780;28;20485;-87
2021/10/20 00:55:29;;;;;;;537.73;514.30;;;11.50;99.90;;;;;;5095086;28;20546;-87
2021/10/20 00:57:56;;;;;;;563.70;538.63;;;11.50;99.90;;;;;;5094640;28;20481;-87
2021/10/20 01:00:31;;;;;;;617.10;586.87;;;11.30;99.90;;;;;;5093401;28;20489;-87
2021/10/20 01:03:02;;;;;;;615.17;584.27;;;11.30;99.90;;;;;;5094595;28;21141;-87
2021/10/20 01:05:32;;;;;;;561.50;535.10;;;11.40;99.90;;;;;;5094257;28;20461;-86
2021/10/20 01:07:59;;;;;;;525.40;501.70;;;11.40;99.90;;;;;;5094483;28;20789;-87
2021/10/20 01:10:31;;;;;;;475.70;456.20;;;11.40;99.90;;;;;;5094531;28;20449;-87
2021/10/20 01:13:02;;;;;;;436.40;419.50;;;11.50;99.90;;;;;;5094526;28;20457;-87
2021/10/20 01:15:39;;;;;;;420.20;403.20;;;11.40;99.90;;;;;;5093292;28;20492;-87
2021/10/20 01:18:10;;;;;;;325.33;313.23;;;11.50;99.90;;;;;;5094191;28;20497;-87
2021/10/20 01:20:42;;;;;;;292.20;281.97;;;11.40;99.90;;;;;;5094274;28;20987;-87
2021/10/20 01:23:15;;;;;;;264.23;255.27;;;11.60;99.90;;;;;;5094232;28;20454;-87
2021/10/20 01:25:42;;;;;;;270.17;261.13;;;11.40;99.90;;;;;;5094080;28;20864;-86
2021/10/20 01:28:09;;;;;;;274.23;264.77;;;11.50;99.90;;;;;;5094298;28;20449;-87
2021/10/20 01:30:42;;;;;;;229.27;221.63;;;11.50;99.90;;;;;;5092931;28;20450;-88
2021/10/20 01:33:21;;;;;;;240.53;232.30;;;11.50;99.90;;;;;;5093991;28;20507;-87
2021/10/20 01:35:50;;;;;;;234.50;226.50;;;11.50;99.90;;;;;;5094006;28;20878;-87
2021/10/20 01:38:24;;;;;;;211.67;204.13;;;11.50;99.90;;;;;;5093710;28;20481;-87
2021/10/20 01:40:55;;;;;;;216.93;209.53;;;11.40;99.90;;;;;;5093819;28;20465;-87
2021/10/20 01:43:22;;;;;;;285.73;275.27;;;11.40;99.90;;;;;;5093849;28;20446;-87
2021/10/20 01:46:01;;;;;;;310.03;299.37;;;11.40;99.90;;;;;;5091576;28;20445;-87
2021/10/20 01:48:30;;;;;;;349.83;336.77;;;11.30;99.90;;;;;;5057758;28;21009;-86
2021/10/20 01:51:00;;;;;;;349.17;336.60;;;11.30;99.90;;;;;;5093623;28;20457;-86
2021/10/20 01:53:29;;;;;;;365.60;352.00;;;11.30;99.90;;;;;;5093647;28;20466;-86
2021/10/20 01:56:04;;;;;;;388.23;373.63;;;11.30;99.90;;;;;;5093818;28;20936;-87
2021/10/20 01:58:31;;;;;;;407.77;392.47;;;11.20;99.90;;;;;;5093502;28;20489;-87
2021/10/20 02:00:58;;;;;;;378.33;364.60;;;11.30;99.90;;;;;;5092579;28;20880;-87
2021/10/20 02:03:33;;;;;;;358.83;345.33;;;11.40;99.90;;;;;;5093291;28;20489;-87
2021/10/20 02:06:08;;;;;;;377.77;363.90;;;11.30;99.90;;;;;;5093673;28;20514;-86
2021/10/20 02:08:36;;;;;;;416.30;400.73;;;11.60;99.90;;;;;;5093435;28;20449;-87
2021/10/20 02:11:06;;;;;;;385.27;371.27;;;11.60;99.90;;;;;;5093277;28;21009;-86
2021/10/20 02:13:35;;;;;;;417.37;402.20;;;11.60;99.90;;;;;;5093504;28;20478;-87
2021/10/20 02:16:15;;;;;;;426.03;410.40;;;11.70;99.90;;;;;;5091967;28;20454;-87
2021/10/20 02:18:44;;;;;;;435.77;419.47;;;11.80;99.90;;;;;;5093085;28;20479;-87
2021/10/20 02:21:11;;;;;;;415.90;400.43;;;11.70;99.90;;;;;;5093509;28;20789;-87
2021/10/20 02:23:42;;;;;;;373.87;360.43;;;11.80;99.90;;;;;;5093210;28;20508;-87
2021/10/20 02:26:12;;;;;;;369.20;356.33;;;11.80;99.90;;;;;;5093230;28;20485;-87
2021/10/20 02:28:42;;;;;;;341.70;329.63;;;11.90;99.90;;;;;;5093080;28;20485;-87
2021/10/20 02:31:11;;;;;;;354.10;341.40;;;11.90;99.90;;;;;;5092660;28;20450;-86
2021/10/20 02:33:39;;;;;;;349.57;337.00;;;11.80;99.90;;;;;;5093095;28;20465;-87
2021/10/20 02:36:07;;;;;;;344.20;332.40;;;11.90;99.90;;;;;;5093048;28;20470;-87
2021/10/20 02:38:34;;;;;;;291.83;282.03;;;12.00;99.90;;;;;;5092805;28;20489;-85
2021/10/20 02:41:02;;;;;;;258.10;249.33;;;12.00;99.90;;;;;;5092848;28;20523;-86
2021/10/20 02:43:33;;;;;;;220.27;213.03;;;12.20;99.90;;;;;;5092936;28;20864;-88
2021/10/20 02:46:01;;;;;;;172.63;166.83;;;12.20;99.90;;;;;;5091984;28;20512;-87
2021/10/20 02:48:28;;;;;;;159.23;153.33;;;12.30;99.90;;;;;;5092903;28;20485;-86
2021/10/20 02:50:55;;;;;;;127.53;123.13;;;12.40;99.90;;;;;;5092948;28;20504;-87
2021/10/20 02:53:26;;;;;;;115.50;111.50;;;12.50;99.90;;;;;;5092759;28;20457;-88
2021/10/20 02:55:53;;;;;;;100.20;96.40;;;12.50;99.90;;;;;;5092832;28;20511;-87
2021/10/20 02:58:26;;;;;;;116.97;112.77;;;12.60;99.90;;;;;;5092589;28;20875;-87
2021/10/20 03:00:53;;;;;;;90.03;86.60;;;12.60;99.90;;;;;;5091798;28;20453;-86
2021/10/20 03:03:22;;;;;;;92.63;89.07;;;12.90;99.90;;;;;;5092766;28;20882;-86
2021/10/20 03:05:49;;;;;;;56.80;54.37;;;12.90;99.90;;;;;;5092535;28;20451;-87
2021/10/20 03:08:16;;;;;;;27.83;26.40;;;13.10;99.90;;;;;;5092643;28;20541;-87
2021/10/20 03:10:43;;;;;;;26.33;24.73;;;13.00;99.90;;;;;;5092699;28;20453;-87
2021/10/20 03:13:12;;;;;;;14.63;12.60;;;13.20;99.90;;;;;;5092563;28;20481;-87
2021/10/20 03:15:45;;;;;;;12.50;11.50;;;13.20;99.90;;;;;;5091708;28;20452;-87
2021/10/20 03:18:26;;;;;;;15.43;12.13;;;13.40;99.90;;;;;;5092361;28;20485;-86
2021/10/20 03:20:53;;;;;;;14.70;11.70;;;13.30;99.90;;;;;;5092597;28;20454;-86
2021/10/20 03:23:20;;;;;;;11.07;10.17;;;13.20;99.90;;;;;;5092580;28;20445;-86
2021/10/20 03:25:46;;;;;;;14.40;12.90;;;13.10;99.90;;;;;;5092761;28;20445;-86
2021/10/20 03:28:13;;;;;;;12.50;11.30;;;13.20;99.90;;;;;;5094114;28;20456;-86
2021/10/20 03:30:42;;;;;;;16.53;11.87;;;13.20;99.90;;;;;;5095647;28;20453;-87
2021/10/20 03:33:11;;;;;;;13.90;12.47;;;13.10;99.90;;;;;;5096306;28;20459;-86
2021/10/20 03:35:38;;;;;;;15.30;14.03;;;13.10;99.90;;;;;;5096277;28;20469;-87
2021/10/20 03:38:06;;;;;;;16.30;15.00;;;13.00;99.90;;;;;;5096180;28;21049;-86
2021/10/20 03:40:36;;;;;;;18.43;17.10;;;13.20;99.90;;;;;;5096475;28;21064;-86
2021/10/20 03:43:03;;;;;;;15.67;14.40;;;13.40;99.90;;;;;;5096331;28;20458;-87
2021/10/20 03:45:31;;;;;;;13.50;12.40;;;13.50;99.90;;;;;;5095041;28;20453;-88
2021/10/20 03:47:58;;;;;;;12.20;10.47;;;13.70;99.90;;;;;;5096131;28;20453;-87
2021/10/20 03:50:26;;;;;;;10.87;9.87;;;13.70;99.90;;;;;;5096051;28;20457;-86
2021/10/20 03:52:53;;;;;;;9.93;8.87;;;13.80;99.90;;;;;;5096129;28;20518;-86
2021/10/20 03:55:22;;;;;;;11.70;9.80;;;13.60;99.90;;;;;;5095974;28;20449;-85
2021/10/20 03:57:50;;;;;;;10.20;9.27;;;13.60;99.90;;;;;;5095816;28;20469;-86
2021/10/20 04:00:20;;;;;;;10.93;9.53;;;13.70;99.90;;;;;;5094704;28;20492;-86
2021/10/20 04:02:48;;;;;;;12.30;9.30;;;13.70;99.90;;;;;;5096056;28;20850;-85
2021/10/20 04:05:35;;;;;;;12.93;9.63;;;13.80;99.90;;;;;;5095811;28;20883;-87
2021/10/20 04:08:13;;;;;;;12.80;8.23;;;13.70;99.90;;;;;;5095979;28;20453;-86
2021/10/20 04:10:40;;;;;;;10.00;9.10;;;13.80;99.90;;;;;;5095559;28;20458;-85
2021/10/20 04:13:08;;;;;;;11.10;8.73;;;13.80;99.90;;;;;;5095674;28;20489;-85
2021/10/20 04:15:40;;;;;;;8.97;8.10;;;13.70;99.90;;;;;;5094609;28;20461;-83
2021/10/20 04:18:10;;;;;;;9.93;9.07;;;13.60;99.90;;;;;;5095232;28;20542;-86
2021/10/20 04:20:48;;;;;;;10.77;9.73;;;13.60;99.90;;;;;;5095468;28;20453;-86
2021/10/20 04:23:20;;;;;;;12.63;10.03;;;13.60;99.90;;;;;;5095364;28;20988;-86
2021/10/20 04:25:49;;;;;;;13.33;10.10;;;13.50;99.90;;;;;;5095355;28;20960;-87
2021/10/20 04:28:18;;;;;;;10.63;9.53;;;13.50;99.90;;;;;;5095513;28;20464;-86
2021/10/20 04:30:58;;;;;;;11.37;9.90;;;13.50;99.90;;;;;;5094171;28;20461;-87
2021/10/20 04:33:27;;;;;;;13.60;12.50;;;13.50;99.90;;;;;;5095229;28;20458;-86
2021/10/20 04:35:54;;;;;;;13.67;11.70;;;13.40;99.90;;;;;;5095288;28;20478;-85
2021/10/20 04:38:22;;;;;;;12.97;11.77;;;13.50;99.90;;;;;;5095001;28;21030;-86
2021/10/20 04:41:05;;;;;;;11.93;10.93;;;13.50;99.90;;;;;;5094313;28;20457;-87
2021/10/20 04:43:32;;;;;;;11.37;10.27;;;13.50;99.90;;;;;;5094836;28;20477;-86
2021/10/20 04:46:03;;;;;;;11.73;9.67;;;13.60;99.90;;;;;;5090947;28;20510;-87
2021/10/20 04:48:33;;;;;;;12.47;11.37;;;13.70;99.90;;;;;;5085896;28;20508;-87
2021/10/20 04:51:15;;;;;;;11.07;10.10;;;13.60;99.90;;;;;;5074793;28;20450;-86
2021/10/20 04:56:38;;;;;;;9.63;8.67;;;13.90;99.80;;;;;;5073201;28;20451;-86
2021/10/20 04:59:07;;;;;;;12.40;9.07;;;14.10;99.40;;;;;;5073385;28;20477;-86
2021/10/20 05:01:49;;;;;;;17.10;9.23;;;14.00;99.90;;;;;;5074746;28;21086;-87
2021/10/20 05:07:04;;;;;;;10.57;9.47;;;13.80;99.90;;;;;;5070934;28;20462;-85
2021/10/20 05:09:32;;;;;;;12.80;11.53;;;13.90;99.90;;;;;;5074501;28;20458;-78
2021/10/20 05:11:59;;;;;;;11.93;10.83;;;13.70;99.90;;;;;;5074225;28;20545;-83
2021/10/20 05:14:25;;;;;;;11.87;10.30;;;13.70;99.90;;;;;;5073396;28;20529;-82
2021/10/20 05:16:52;;;;;;;15.17;12.40;;;13.70;99.90;;;;;;5074098;28;20558;-83
2021/10/20 05:19:19;;;;;;;21.87;14.40;;;13.90;99.90;;;;;;5073943;28;20483;-81
2021/10/20 05:22:09;;;;;;;;;;;;;;;;;;;;;
2021/10/20 05:24:39;;;;;;;61.73;21.20;;;13.90;99.90;;;;;;5070352;28;20443;-85
2021/10/20 05:27:06;;;;;;;17.47;12.77;;;13.90;99.90;;;;;;5074184;28;20798;-86
2021/10/20 05:29:40;;;;;;;14.73;12.27;;;13.70;99.90;;;;;;5073011;28;20478;-88
2021/10/20 05:32:07;;;;;;;14.43;12.93;;;13.70;99.90;;;;;;5073832;28;20971;-83
2021/10/20 05:34:36;;;;;;;16.60;13.03;;;13.70;99.90;;;;;;5038657;28;20509;-86
2021/10/20 05:37:03;;;;;;;12.40;11.30;;;13.80;99.90;;;;;;5074087;28;20454;-87
2021/10/20 05:39:32;;;;;;;15.50;12.53;;;13.70;99.90;;;;;;5073627;28;20482;-87
2021/10/20 05:42:09;;;;;;;14.17;12.87;;;13.70;99.90;;;;;;5090285;28;20454;-88
2021/10/20 05:44:45;;;;;;;13.30;12.00;;;13.80;99.90;;;;;;5092783;28;20449;-87
2021/10/20 05:47:12;;;;;;;13.13;11.83;;;13.70;99.90;;;;;;5093697;28;20508;-90
2021/10/20 05:49:41;;;;;;;13.40;12.30;;;13.70;99.90;;;;;;5093711;28;20458;-88
2021/10/20 05:52:11;;;;;;;15.70;14.37;;;13.60;99.90;;;;;;5092805;28;20571;-88
2021/10/20 05:54:45;;;;;;;16.60;15.40;;;13.60;99.90;;;;;;5093613;28;20461;-88
2021/10/20 05:57:14;;;;;;;17.07;15.87;;;13.60;99.90;;;;;;5093379;28;20449;-91
2021/10/20 05:59:42;;;;;;;20.40;18.87;;;13.50;99.90;;;;;;5092680;28;20576;-88
2021/10/20 06:02:12;;;;;;;25.90;24.33;;;13.40;99.90;;;;;;5093621;28;20818;-90
2021/10/20 06:04:40;;;;;;;25.60;24.10;;;13.30;99.90;;;;;;5093045;28;20453;-91
2021/10/20 06:07:07;;;;;;;29.60;27.80;;;13.30;99.90;;;;;;5093573;28;20532;-90
2021/10/20 06:09:34;;;;;;;34.00;32.07;;;13.20;99.90;;;;;;5093461;28;20853;-90
2021/10/20 06:12:11;;;;;;;54.07;51.73;;;13.20;99.90;;;;;;5093331;28;20450;-89
2021/10/20 06:14:45;;;;;;;71.57;68.47;;;13.20;99.90;;;;;;5092720;28;20460;-90
2021/10/20 06:17:14;;;;;;;74.53;71.30;;;13.20;99.90;;;;;;5092865;28;20513;-89
2021/10/20 06:19:43;;;;;;;94.60;90.83;;;13.20;99.90;;;;;;5091499;28;20576;-89
2021/10/20 06:22:10;;;;;;;87.60;83.70;;;13.10;99.90;;;;;;5093121;28;20528;-91
2021/10/20 06:24:37;;;;;;;92.20;88.07;;;13.30;99.90;;;;;;5093429;28;20548;-91
2021/10/20 06:27:04;;;;;;;86.17;82.40;;;13.30;99.90;;;;;;5093255;28;20554;-89
2021/10/20 06:29:31;;;;;;;82.77;79.40;;;13.30;99.90;;;;;;5092296;28;20492;-88
2021/10/20 06:31:59;;;;;;;68.63;65.50;;;13.40;99.90;;;;;;5093193;28;20887;-88
2021/10/20 06:34:28;;;;;;;48.77;45.87;;;13.50;99.90;;;;;;5092799;28;20474;-87
2021/10/20 06:37:04;;;;;;;28.37;25.50;;;13.90;99.90;;;;;;5093060;28;20456;-90
2021/10/20 06:39:37;;;;;;;15.93;14.30;;;14.00;99.90;;;;;;5092896;28;20857;-87
2021/10/20 06:42:07;;;;;;;12.80;11.47;;;14.40;99.90;;;;;;5092997;28;20481;-88
2021/10/20 06:44:33;;;;;;;13.00;11.70;;;14.50;99.50;;;;;;5091963;28;20541;-91
2021/10/20 06:47:02;;;;;;;12.80;10.03;;;14.60;99.50;;;;;;5092817;28;20541;-89
2021/10/20 06:49:29;;;;;;;18.57;11.70;;;14.70;98.60;;;;;;5092885;28;20548;-92
2021/10/20 06:51:55;;;;;;;18.80;11.27;;;14.80;98.50;;;;;;5092819;28;20462;-93
2021/10/20 06:54:23;;;;;;;12.70;9.77;;;14.80;98.50;;;;;;5093013;28;20486;-92
2021/10/20 06:56:57;;;;;;;11.73;8.97;;;14.80;97.80;;;;;;5092900;28;20457;-92
2021/10/20 06:59:28;;;;;;;9.17;7.27;;;14.90;97.90;;;;;;5091876;28;20988;-93
2021/10/20 07:01:55;;;;;;;12.40;8.03;;;15.00;96.90;;;;;;5092894;28;20952;-92
2021/10/20 07:04:23;;;;;;;10.77;7.77;;;14.90;97.10;;;;;;5096374;28;20459;-90
2021/10/20 07:06:51;;;;;;;9.87;8.87;;;15.00;97.80;;;;;;5096954;28;20544;-89
2021/10/20 07:09:21;;;;;;;11.90;8.20;;;15.00;97.90;;;;;;5097158;28;20449;-87
2021/10/20 07:11:48;;;;;;;9.90;7.90;;;14.80;97.70;;;;;;5096902;28;20508;-89
2021/10/20 07:14:15;;;;;;;8.10;7.27;;;15.00;97.50;;;;;;5095534;28;20501;-88
2021/10/20 07:16:42;;;;;;;8.67;7.00;;;15.10;97.10;;;;;;5096994;28;20953;-88
2021/10/20 07:19:12;;;;;;;13.17;7.30;;;15.20;96.50;;;;;;5096352;28;20586;-88
2021/10/20 07:21:43;;;;;;;11.93;7.53;;;15.20;95.90;;;;;;5096587;28;20459;-88
2021/10/20 07:24:12;;;;;;;7.07;6.20;;;15.40;95.20;;;;;;5094290;28;20796;-88
2021/10/20 07:26:48;;;;;;;9.80;6.63;;;15.50;94.80;;;;;;5094971;28;20455;-88
2021/10/20 07:29:15;;;;;;;9.40;6.03;;;15.50;94.20;;;;;;5094891;28;20460;-89
2021/10/20 07:31:42;;;;;;;8.70;6.50;;;15.50;94.30;;;;;;5096448;28;20462;-88
2021/10/20 07:34:09;;;;;;;10.23;7.43;;;15.50;94.50;;;;;;5096343;28;20475;-88
2021/10/20 07:36:46;;;;;;;10.50;7.50;;;15.50;95.20;;;;;;5096273;28;20502;-91
2021/10/20 07:39:16;;;;;;;8.43;7.27;;;15.40;95.30;;;;;;5096159;28;20484;-88
2021/10/20 07:41:45;;;;;;;10.10;7.30;;;15.40;95.80;;;;;;5096209;28;20507;-87
2021/10/20 07:44:48;;;;;;;11.20;6.70;;;15.50;95.70;;;;;;5095336;28;20451;-89
2021/10/20 07:47:26;;;;;;;9.23;6.60;;;15.50;95.00;;;;;;5085085;28;20815;-92
2021/10/20 07:49:53;;;;;;;8.33;7.20;;;15.50;95.30;;;;;;5079884;28;20899;-91
2021/10/20 07:52:25;;;;;;;14.63;7.73;;;15.50;95.50;;;;;;5076071;28;20536;-87
2021/10/20 07:54:53;;;;;;;11.60;7.40;;;15.70;95.30;;;;;;5075724;28;20506;-80
2021/10/20 07:57:19;;;;;;;9.80;7.57;;;15.70;94.80;;;;;;5076020;28;20909;-92
2021/10/20 07:59:46;;;;;;;14.03;7.73;;;15.90;94.80;;;;;;5074663;28;20924;-94
2021/10/20 08:02:15;;;;;;;10.67;6.60;;;15.90;94.70;;;;;;5075831;28;20456;-91
2021/10/20 08:04:42;;;;;;;8.27;6.63;;;15.90;93.60;;;;;;5075841;28;20452;-91
2021/10/20 08:07:09;;;;;;;14.03;6.40;;;15.90;93.40;;;;;;5075753;28;20921;-92
2021/10/20 08:09:37;;;;;;;9.90;5.77;;;16.10;93.80;;;;;;5075804;28;20823;-93
2021/10/20 08:12:04;;;;;;;11.40;7.30;;;16.10;93.50;;;;;;5075504;28;20548;-91
2021/10/20 08:14:33;;;;;;;11.13;6.57;;;16.10;93.80;;;;;;5073294;28;20545;-92
2021/10/20 08:17:01;;;;;;;9.87;6.50;;;16.10;93.50;;;;;;5075125;28;20517;-91
2021/10/20 08:19:28;;;;;;;12.33;6.80;;;16.20;93.50;;;;;;5075160;28;20496;-90
2021/10/20 08:21:55;;;;;;;12.57;6.93;;;16.20;93.50;;;;;;5075299;28;20542;-91
2021/10/20 08:24:22;;;;;;;8.00;6.10;;;16.20;93.70;;;;;;5075340;28;21009;-91
2021/10/20 08:26:51;;;;;;;8.10;6.97;;;16.20;93.50;;;;;;5075425;28;20501;-90
2021/10/20 08:29:18;;;;;;;9.97;6.90;;;16.30;93.60;;;;;;5074024;28;20894;-92
2021/10/20 08:31:45;;;;;;;12.53;5.90;;;16.40;92.70;;;;;;5075075;28;20457;-91
2021/10/20 08:34:12;;;;;;;9.27;5.77;;;16.60;91.80;;;;;;5075108;28;20493;-92
2021/10/20 08:36:39;;;;;;;11.97;5.70;;;16.60;91.90;;;;;;5075133;28;20522;-92
2021/10/20 08:39:15;;;;;;;10.60;7.50;;;16.70;91.60;;;;;;5074911;28;20563;-90
2021/10/20 08:41:50;;;;;;;13.07;7.97;;;16.70;91.90;;;;;;5088878;28;20956;-91
2021/10/20 08:44:19;;;;;;;17.20;7.50;;;16.80;91.60;;;;;;5094439;28;20947;-92
2021/10/20 08:46:57;;;;;;;10.77;6.70;;;16.80;90.70;;;;;;5095219;28;20496;-91
2021/10/20 08:49:25;;;;;;;11.07;7.00;;;16.80;90.90;;;;;;5095513;28;20960;-82
2021/10/20 08:52:04;;;;;;;14.87;7.53;;;16.70;90.30;;;;;;5094772;28;20480;-86
2021/10/20 08:54:35;;;;;;;10.03;6.80;;;16.60;90.30;;;;;;5094919;28;20791;-81
2021/10/20 08:57:05;;;;;;;8.90;6.20;;;16.60;89.90;;;;;;5094946;28;20454;-91
2021/10/20 08:59:35;;;;;;;9.90;7.47;;;16.60;87.90;;;;;;5094195;28;20485;-87
2021/10/20 09:02:07;;;;;;;10.10;7.50;;;16.60;88.90;;;;;;5094894;28;20461;-83
2021/10/20 09:04:35;;;;;;;20.07;8.70;;;16.70;87.90;;;;;;5094984;28;20498;-88
2021/10/20 09:07:16;;;;;;;16.67;9.33;;;16.60;88.00;;;;;;5094636;28;20456;-86
2021/10/20 09:10:04;;;;;;;14.03;9.50;;;16.80;86.70;;;;;;5094682;28;20801;-88
2021/10/20 09:12:48;;;;;;;11.23;8.77;;;16.90;84.40;;;;;;5094559;28;20810;-87
2021/10/20 09:15:45;;;;;;;17.90;9.50;;;17.00;84.30;;;;;;5093200;28;20496;-87
2021/10/20 09:18:37;;;;;;;;;;;;;;;;;;;;;
2021/10/20 09:21:17;;;;;;;18.10;11.03;;;17.00;83.30;;;;;;5094344;28;20449;-87
2021/10/20 09:24:26;;;;;;;10.80;8.57;;;16.80;83.20;;;;;;5094320;28;20771;-88
2021/10/20 09:27:04;;;;;;;15.77;9.73;;;16.90;82.60;;;;;;4972582;28;20504;-86
2021/10/20 09:29:42;;;;;;;13.20;8.30;;;16.90;83.20;;;;;;5061071;28;20484;-86
2021/10/20 09:32:24;;;;;;;17.23;9.33;;;16.80;83.20;;;;;;5094368;28;20586;-87
2021/10/20 09:34:52;;;;;;;18.20;8.63;;;16.80;82.70;;;;;;5094033;28;20457;-87
2021/10/20 09:37:21;;;;;;;16.23;8.23;;;16.70;85.80;;;;;;5094050;28;20844;-87
2021/10/20 09:39:52;;;;;;;13.37;8.47;;;16.70;83.10;;;;;;5093861;28;20520;-88
2021/10/20 09:42:20;;;;;;;16.90;8.40;;;16.70;83.10;;;;;;5093874;28;20777;-86
2021/10/20 09:44:56;;;;;;;13.27;9.67;;;16.80;83.20;;;;;;5092655;28;20558;-89
2021/10/20 09:47:32;;;;;;;19.17;8.70;;;16.80;83.20;;;;;;5093891;28;20445;-89
2021/10/20 09:50:09;;;;;;;14.23;7.57;;;16.90;82.80;;;;;;5093559;28;20810;-89
2021/10/20 09:55:45;;;;;;;13.50;9.40;;;17.10;79.70;;;;;;5020516;28;20479;-87
2021/10/20 09:58:17;;;;;;;18.27;10.30;;;17.10;80.70;;;;;;5033677;28;21032;-90
2021/10/20 10:00:56;;;;;;;12.70;9.20;;;17.10;80.60;;;;;;5032371;28;20485;-87
2021/10/20 10:03:33;;;;;;;11.63;7.90;;;17.00;80.50;;;;;;5033521;28;20499;-90
2021/10/20 10:06:29;;;;;;;9.80;6.77;;;17.10;80.90;;;;;;5033077;28;20455;-91
2021/10/20 10:08:55;;;;;;;13.07;7.33;;;17.10;80.30;;;;;;5011261;28;20866;-87
2021/10/20 10:11:35;;;;;;;9.60;6.27;;;17.00;80.10;;;;;;5033596;28;20448;-92
2021/10/20 10:14:06;;;;;;;12.60;7.13;;;16.90;80.00;;;;;;5032712;28;20453;-91
2021/10/20 10:16:34;;;;;;;10.47;6.33;;;16.80;81.10;;;;;;5033438;28;20463;-90
2021/10/20 10:19:02;;;;;;;8.70;5.77;;;16.90;83.20;;;;;;5033401;28;20539;-89
2021/10/20 10:21:32;;;;;;;9.17;6.47;;;16.60;85.20;;;;;;5033520;28;20466;-87
2021/10/20 10:24:01;;;;;;;10.83;6.10;;;16.40;89.60;;;;;;5033208;28;20487;-90
2021/10/20 10:26:28;;;;;;;8.70;6.77;;;16.20;91.40;;;;;;5034686;28;20837;-90
2021/10/20 10:29:07;;;;;;;8.90;6.87;;;16.40;92.80;;;;;;5034950;28;20902;-92
2021/10/20 10:31:36;;;;;;;10.73;7.93;;;16.30;92.90;;;;;;5035005;28;20454;-90
2021/10/20 10:34:05;;;;;;;10.60;7.90;;;16.30;93.00;;;;;;5035179;28;20458;-88
2021/10/20 10:36:33;;;;;;;10.77;8.60;;;16.50;93.10;;;;;;5035995;28;20874;-91
2021/10/20 10:39:08;;;;;;;9.20;7.93;;;16.60;92.20;;;;;;5036260;28;20538;-88
2021/10/20 10:41:36;;;;;;;11.53;9.63;;;16.70;92.00;;;;;;5037008;28;20484;-91
2021/10/20 10:44:15;;;;;;;8.70;6.63;;;16.90;92.10;;;;;;5033316;28;20536;-92
2021/10/20 10:47:02;;;;;;;8.90;7.17;;;17.20;90.80;;;;;;5025284;28;20453;-92
2021/10/20 10:49:31;;;;;;;11.43;6.53;;;17.30;88.30;;;;;;5029510;28;20457;-90
2021/10/20 10:52:30;;;;;;;8.40;6.23;;;17.40;87.30;;;;;;5034138;28;20548;-88
2021/10/20 10:55:00;;;;;;;14.60;6.10;;;17.40;89.40;;;;;;5032631;28;20460;-90
2021/10/20 10:57:44;;;;;;;12.80;6.87;;;17.50;88.90;;;;;;5032479;28;20545;-89
2021/10/20 11:00:25;;;;;;;11.63;6.20;;;17.50;90.10;;;;;;5030477;28;20517;-91
2021/10/20 11:02:55;;;;;;;15.10;6.27;;;17.60;88.50;;;;;;5034386;28;20488;-92
2021/10/20 11:05:23;;;;;;;9.77;6.13;;;17.60;86.20;;;;;;5036264;28;20487;-90
2021/10/20 11:07:56;;;;;;;9.27;6.27;;;17.60;86.50;;;;;;5036770;28;20891;-92
2021/10/20 11:10:37;;;;;;;9.53;5.87;;;17.60;85.30;;;;;;5033431;28;20967;-83
2021/10/20 11:13:05;;;;;;;12.40;7.03;;;17.80;87.30;;;;;;5037167;28;20457;-91
2021/10/20 11:15:38;;;;;;;8.73;6.03;;;17.60;86.50;;;;;;5034107;28;20488;-90
2021/10/20 11:18:06;;;;;;;7.97;6.57;;;17.60;85.00;;;;;;5032652;28;20465;-91
2021/10/20 11:20:49;;;;;;;13.33;6.20;;;17.70;85.30;;;;;;5033333;28;20563;-88
2021/10/20 11:23:19;;;;;;;10.50;5.87;;;17.60;84.00;;;;;;5033910;28;20492;-91
2021/10/20 11:26:02;;;;;;;10.63;7.30;;;17.60;83.90;;;;;;5035265;28;20461;-93
2021/10/20 11:28:32;;;;;;;7.23;6.17;;;17.30;86.50;;;;;;5033057;28;20941;-92
2021/10/20 11:31:07;;;;;;;10.57;7.10;;;17.30;90.00;;;;;;5032743;28;20449;-87
2021/10/20 11:33:33;;;;;;;14.17;7.80;;;17.00;90.40;;;;;;5032832;28;20460;-90
2021/10/20 11:36:00;;;;;;;18.23;8.87;;;16.90;91.60;;;;;;5033821;28;20460;-94
2021/10/20 11:38:34;;;;;;;12.07;10.73;;;16.70;93.10;;;;;;5035591;28;20455;-90
2021/10/20 11:41:01;;;;;;;14.27;12.77;;;16.70;93.90;;;;;;5027552;28;20480;-92
2021/10/20 11:43:35;;;;;;;14.10;11.70;;;16.70;94.40;;;;;;5016411;28;20539;-93
2021/10/20 11:46:03;;;;;;;15.83;14.40;;;16.90;93.80;;;;;;5014389;28;20519;-91
2021/10/20 11:48:30;;;;;;;12.95;11.77;;;16.80;93.80;;;;;;5015045;28;20527;-89
2021/10/20 11:51:01;;;;;;;12.00;10.90;;;17.20;93.90;;;;;;5015540;28;20752;-92
2021/10/20 11:53:31;;;;;;;12.27;11.07;;;17.30;92.40;;;;;;5019105;28;20904;-91
2021/10/20 11:56:00;;;;;;;12.33;10.67;;;17.50;92.60;;;;;;5036958;28;21181;-91
2021/10/20 11:58:29;;;;;;;10.20;8.33;;;17.60;92.00;;;;;;5036115;28;20465;-91
2021/10/20 12:00:58;;;;;;;19.50;8.90;;;17.90;91.10;;;;;;5037131;28;21086;-87
2021/10/20 12:03:34;;;;;;;12.40;7.47;;;18.20;90.40;;;;;;5036914;28;20509;-92
2021/10/20 12:06:03;;;;;;;10.30;6.83;;;18.40;87.80;;;;;;5038713;28;20518;-89
2021/10/20 12:08:34;;;;;;;8.40;5.73;;;18.60;84.20;;;;;;5038367;28;20551;-85
2021/10/20 12:11:02;;;;;;;7.87;5.80;;;18.60;82.70;;;;;;5024076;28;20461;-88
2021/10/20 12:13:29;;;;;;;10.77;7.00;;;18.50;81.80;;;;;;5018262;28;20476;-90
2021/10/20 12:15:57;;;;;;;12.00;6.80;;;18.40;83.70;;;;;;5017687;28;20475;-92
2021/10/20 12:18:25;;;;;;;10.40;7.10;;;18.30;82.10;;;;;;5017273;28;20532;-91
2021/10/20 12:20:56;;;;;;;9.00;6.67;;;18.30;81.20;;;;;;5019357;28;20543;-90
2021/10/20 12:23:23;;;;;;;8.43;5.50;;;18.40;84.60;;;;;;5016485;28;20543;-90
2021/10/20 12:25:55;;;;;;;14.87;6.87;;;18.40;82.90;;;;;;5016514;28;20474;-87
2021/10/20 12:28:25;;;;;;;12.60;7.03;;;18.40;81.80;;;;;;5018112;28;20861;-89
2021/10/20 12:30:52;;;;;;;11.13;7.83;;;18.30;82.60;;;;;;5016526;28;20529;-88
2021/10/20 12:33:22;;;;;;;9.30;7.10;;;18.30;82.10;;;;;;5016058;28;20462;-90
2021/10/20 12:35:49;;;;;;;14.50;7.63;;;18.40;83.50;;;;;;5015883;28;20479;-92
2021/10/20 12:38:21;;;;;;;31.67;7.63;;;18.50;83.50;;;;;;5015638;28;20478;-93
2021/10/20 12:40:49;;;;;;;10.83;6.63;;;18.20;83.60;;;;;;5015875;28;20561;-90
2021/10/20 12:43:18;;;;;;;9.52;6.95;;;18.20;82.40;;;;;;5015795;28;20459;-90
2021/10/20 12:45:49;;;;;;;11.90;7.13;;;18.00;82.00;;;;;;5017377;28;20289;-89
2021/10/20 12:48:16;;;;;;;8.63;6.07;;;17.90;81.50;;;;;;5020174;28;20873;-89
2021/10/20 12:50:48;;;;;;;12.73;7.50;;;18.10;82.70;;;;;;5021688;28;20479;-91
2021/10/20 12:53:18;;;;;;;11.93;7.33;;;17.80;82.30;;;;;;5020455;28;20479;-83
2021/10/20 12:55:45;;;;;;;9.03;7.40;;;17.80;82.90;;;;;;5033676;28;20481;-89
2021/10/20 12:58:14;;;;;;;7.83;6.40;;;17.80;83.00;;;;;;5036364;28;20465;-91